createdAt,value
2019-02-24T00:01:43.536Z,71.20
2019-02-24T00:04:12.458Z,71.80
2019-02-24T00:06:41.762Z,71.80
2019-02-24T00:09:10.772Z,70.90
2019-02-24T00:11:39.677Z,71.00
2019-02-24T00:14:08.595Z,70.90
2019-02-24T00:16:39.180Z,72.20
2019-02-24T00:19:08.112Z,72.60
2019-02-24T00:21:36.996Z,72.30
2019-02-24T00:24:06.032Z,72.50
2019-02-24T00:26:34.984Z,72.60
2019-02-24T00:29:03.924Z,73.70
2019-02-24T00:31:32.828Z,73.20
2019-02-24T00:34:01.828Z,73.80
2019-02-24T00:36:31.096Z,73.80
2019-02-24T00:38:59.997Z,74.20
2019-02-24T00:41:28.884Z,73.60
2019-02-24T00:43:57.935Z,73.20
2019-02-24T00:46:28.956Z,72.10
2019-02-24T00:48:57.871Z,70.80
2019-02-24T00:51:26.868Z,70.30
2019-02-24T00:53:55.880Z,71.80
2019-02-24T00:56:25.057Z,72.20
2019-02-24T00:58:57.303Z,72.40
2019-02-24T01:01:26.324Z,72.20
2019-02-24T01:03:55.512Z,71.90
2019-02-24T01:06:27.417Z,72.70
2019-02-24T01:08:56.417Z,72.40
2019-02-24T01:11:25.724Z,71.80
2019-02-24T01:13:54.652Z,73.90
2019-02-24T01:16:23.851Z,73.90
2019-02-24T01:18:52.788Z,73.80
2019-02-24T01:21:21.678Z,74.30
2019-02-24T01:23:52.638Z,74.00
2019-02-24T01:26:21.754Z,74.00
2019-02-24T01:28:50.916Z,74.40
2019-02-24T01:31:19.853Z,73.10
2019-02-24T01:33:49.081Z,73.10
2019-02-24T01:36:18.213Z,73.10
2019-02-24T01:38:47.213Z,72.40
2019-02-24T01:41:16.240Z,72.00
2019-02-24T01:43:45.107Z,71.40
2019-02-24T01:46:14.133Z,71.50
2019-02-24T01:48:43.308Z,71.20
2019-02-24T01:51:12.245Z,71.30
2019-02-24T01:53:41.488Z,71.20
2019-02-24T01:56:10.676Z,70.60
2019-02-24T01:58:39.632Z,69.40
2019-02-24T02:01:08.549Z,69.10
2019-02-24T02:03:37.428Z,68.20
2019-02-24T02:06:06.396Z,67.10
2019-02-24T02:08:35.428Z,66.80
2019-02-24T02:11:04.492Z,66.20
2019-02-24T02:13:33.621Z,67.00
2019-02-24T02:16:02.608Z,65.80
2019-02-24T02:18:31.478Z,65.20
2019-02-24T02:21:00.653Z,65.10
2019-02-24T02:23:32.437Z,64.50
2019-02-24T02:26:01.389Z,63.90
2019-02-24T02:28:30.244Z,64.30
2019-02-24T02:30:59.128Z,63.90
2019-02-24T02:33:27.968Z,63.60
2019-02-24T02:35:58.707Z,64.20
2019-02-24T02:38:27.905Z,64.60
2019-02-24T02:40:56.919Z,64.10
2019-02-24T02:43:25.735Z,63.50
2019-02-24T02:45:55.258Z,63.40
2019-02-24T02:48:24.031Z,63.80
2019-02-24T02:50:53.078Z,63.60
2019-02-24T02:53:21.890Z,64.00
2019-02-24T02:55:50.788Z,64.60
2019-02-24T02:58:19.594Z,64.20
2019-02-24T03:00:48.468Z,64.50
2019-02-24T03:03:17.367Z,64.50
2019-02-24T03:05:58.098Z,64.60
2019-02-24T03:08:46.466Z,64.70
2019-02-24T03:11:15.797Z,64.80
2019-02-24T03:13:44.681Z,65.50
2019-02-24T03:16:13.674Z,65.60
2019-02-24T03:18:42.567Z,65.30
2019-02-24T03:21:11.353Z,66.00
2019-02-24T03:23:40.470Z,65.10
2019-02-24T03:26:09.529Z,65.90
2019-02-24T03:28:38.324Z,65.90
2019-02-24T03:31:07.128Z,66.90
2019-02-24T03:33:35.904Z,66.50
2019-02-24T03:36:04.767Z,66.40
2019-02-24T03:38:33.827Z,66.60
2019-02-24T03:41:02.714Z,66.10
2019-02-24T03:43:31.577Z,66.40
2019-02-24T03:46:00.381Z,66.50
2019-02-24T03:48:29.165Z,65.20
2019-02-24T03:50:57.972Z,65.60
2019-02-24T03:53:26.954Z,65.90
2019-02-24T03:55:57.659Z,65.60
2019-02-24T03:58:26.779Z,65.60
2019-02-24T04:00:55.935Z,65.90
2019-02-24T04:03:24.782Z,65.80
2019-02-24T04:05:53.750Z,66.60
2019-02-24T04:08:22.555Z,66.40
2019-02-24T04:10:51.379Z,67.20
2019-02-24T04:13:20.295Z,67.50
2019-02-24T04:15:50.286Z,67.10
2019-02-24T04:18:19.422Z,67.50
2019-02-24T04:20:48.264Z,67.80
2019-02-24T04:23:17.088Z,68.40
2019-02-24T04:25:45.951Z,68.40
2019-02-24T04:28:14.713Z,68.10
2019-02-24T04:30:43.526Z,68.40
2019-02-24T04:33:12.585Z,68.80
2019-02-24T04:35:41.358Z,69.00
2019-02-24T04:38:10.159Z,69.80
2019-02-24T04:40:38.980Z,69.80
2019-02-24T04:43:08.079Z,69.70
2019-02-24T04:45:37.216Z,69.60
2019-02-24T04:48:06.000Z,69.60
2019-02-24T04:50:35.076Z,70.00
2019-02-24T04:53:03.859Z,70.80
2019-02-24T04:55:33.918Z,70.50
2019-02-24T04:58:02.875Z,70.40
2019-02-24T05:00:32.850Z,70.30
2019-02-24T05:03:01.807Z,70.30
2019-02-24T05:05:31.234Z,69.40
2019-02-24T05:08:00.153Z,70.10
2019-02-24T05:10:28.982Z,70.00
2019-02-24T05:12:57.767Z,70.10
2019-02-24T05:15:26.931Z,71.00
2019-02-24T05:17:55.718Z,70.80
2019-02-24T05:20:24.802Z,71.00
2019-02-24T05:22:53.642Z,71.50
2019-02-24T05:25:22.734Z,72.00
2019-02-24T05:27:52.267Z,72.50
2019-02-24T05:30:21.046Z,72.90
2019-02-24T05:32:49.867Z,72.30
2019-02-24T05:35:18.668Z,73.10
2019-02-24T05:37:47.788Z,72.40
2019-02-24T05:40:16.594Z,73.10
2019-02-24T05:42:45.381Z,73.40
2019-02-24T05:45:14.504Z,73.70
2019-02-24T05:47:43.388Z,73.40
2019-02-24T05:50:12.239Z,72.20
2019-02-24T05:52:41.076Z,71.00
2019-02-24T05:55:09.935Z,71.10
2019-02-24T05:57:39.002Z,70.30
2019-02-24T06:00:07.943Z,69.80
2019-02-24T06:02:36.977Z,70.60
2019-02-24T06:05:05.934Z,70.00
2019-02-24T06:07:34.993Z,69.70
2019-02-24T06:10:04.023Z,69.30
2019-02-24T06:12:32.866Z,70.10
2019-02-24T06:15:01.900Z,69.20
2019-02-24T06:17:30.767Z,68.20
2019-02-24T06:19:59.556Z,67.40
2019-02-24T06:22:28.383Z,67.50
2019-02-24T06:24:57.223Z,67.50
2019-02-24T06:27:26.022Z,67.40
2019-02-24T06:30:04.262Z,67.80
2019-02-24T06:32:25.422Z,66.30
2019-02-24T06:34:54.236Z,66.50
2019-02-24T06:37:23.032Z,65.90
2019-02-24T06:39:51.891Z,64.60
2019-02-24T06:42:20.690Z,64.50
2019-02-24T06:44:49.539Z,64.20
2019-02-24T06:47:18.365Z,63.50
2019-02-24T06:49:47.167Z,63.80
2019-02-24T06:52:15.949Z,62.90
2019-02-24T06:54:44.774Z,62.30
2019-02-24T06:57:13.559Z,62.00
2019-02-24T06:59:42.450Z,61.30
2019-02-24T07:02:11.243Z,60.70
2019-02-24T07:04:40.024Z,60.70
2019-02-24T07:07:08.895Z,60.00
2019-02-24T07:09:37.795Z,60.20
2019-02-24T07:12:06.591Z,60.00
2019-02-24T07:14:35.682Z,59.20
2019-02-24T07:17:04.458Z,59.60
2019-02-24T07:19:35.220Z,57.90
2019-02-24T07:22:03.750Z,56.80
2019-02-24T07:24:33.115Z,56.70
2019-02-24T07:27:02.158Z,56.80
2019-02-24T07:29:30.983Z,55.30
2019-02-24T07:31:59.871Z,54.40
2019-02-24T07:34:28.852Z,53.70
2019-02-24T07:36:57.799Z,53.50
2019-02-24T07:39:26.578Z,53.50
2019-02-24T07:41:55.373Z,52.80
2019-02-24T07:44:24.271Z,50.60
2019-02-24T07:46:53.034Z,50.90
2019-02-24T07:49:21.835Z,49.80
2019-02-24T07:51:50.622Z,47.70
2019-02-24T07:54:19.478Z,46.00
2019-02-24T07:56:48.294Z,44.10
2019-02-24T07:59:17.093Z,44.40
2019-02-24T08:01:45.906Z,44.00
2019-02-24T08:04:14.793Z,42.80
2019-02-24T08:06:43.598Z,43.60
2019-02-24T08:09:12.414Z,42.60
2019-02-24T08:11:41.327Z,40.50
2019-02-24T08:14:10.199Z,41.70
2019-02-24T08:16:38.982Z,41.70
2019-02-24T08:19:07.868Z,40.50
2019-02-24T08:21:37.046Z,40.80
2019-02-24T08:24:05.922Z,37.70
2019-02-24T08:26:34.754Z,39.20
2019-02-24T08:29:03.954Z,35.30
2019-02-24T08:31:33.055Z,35.10
2019-02-24T08:34:01.845Z,34.70
2019-02-24T08:36:30.617Z,34.70
2019-02-24T08:38:59.410Z,36.00
2019-02-24T08:41:28.997Z,34.10
2019-02-24T08:44:06.893Z,33.20
2019-02-24T08:46:35.698Z,32.00
2019-02-24T08:49:04.526Z,34.10
2019-02-24T08:51:33.315Z,33.90
2019-02-24T08:54:02.119Z,34.20
2019-02-24T08:56:30.874Z,33.40
2019-02-24T08:58:59.646Z,33.50
2019-02-24T09:01:28.534Z,32.20
2019-02-24T09:03:57.696Z,30.60
2019-02-24T09:06:26.458Z,31.30
2019-02-24T09:08:55.247Z,30.50
2019-02-24T09:11:23.989Z,28.80
2019-02-24T09:13:52.844Z,29.70
2019-02-24T09:16:21.627Z,29.90
2019-02-24T09:18:50.389Z,30.70
2019-02-24T09:21:19.233Z,30.20
2019-02-24T09:23:48.079Z,28.80
2019-02-24T09:26:16.879Z,29.00
2019-02-24T09:28:45.728Z,29.50
2019-02-24T09:31:14.519Z,29.40
2019-02-24T09:33:43.310Z,28.60
2019-02-24T09:36:12.081Z,28.10
2019-02-24T09:38:40.953Z,28.40
2019-02-24T09:41:09.823Z,28.90
2019-02-24T09:43:38.582Z,30.00
2019-02-24T09:46:07.386Z,30.80
2019-02-24T09:48:36.174Z,32.00
2019-02-24T09:51:05.056Z,31.70
2019-02-24T09:53:33.837Z,31.50
2019-02-24T09:56:02.640Z,31.60
2019-02-24T09:58:31.418Z,32.20
2019-02-24T10:01:00.277Z,33.60
2019-02-24T10:03:29.162Z,32.30
2019-02-24T10:05:57.941Z,31.50
2019-02-24T10:08:26.815Z,29.30
2019-02-24T10:10:57.306Z,27.70
2019-02-24T10:13:26.122Z,28.80
2019-02-24T10:15:54.943Z,29.70
2019-02-24T10:18:23.713Z,28.90
2019-02-24T10:20:52.483Z,30.70
2019-02-24T10:23:21.410Z,30.80
2019-02-24T10:25:50.326Z,29.90
2019-02-24T10:28:19.278Z,29.80
2019-02-24T10:30:48.524Z,30.90
2019-02-24T10:33:17.407Z,30.30
2019-02-24T10:35:46.207Z,30.60
2019-02-24T10:38:14.994Z,30.60
2019-02-24T10:40:43.902Z,31.00
2019-02-24T10:43:12.858Z,30.60
2019-02-24T10:45:41.708Z,31.00
2019-02-24T10:48:14.000Z,31.90
2019-02-24T10:50:41.115Z,30.00
2019-02-24T10:53:09.990Z,30.70
2019-02-24T10:55:38.806Z,30.50
2019-02-24T10:58:07.748Z,29.70
2019-02-24T11:00:37.004Z,30.40
2019-02-24T11:03:05.799Z,31.50
2019-02-24T11:05:34.678Z,31.50
2019-02-24T11:08:03.572Z,31.50
2019-02-24T11:10:32.543Z,33.30
2019-02-24T11:13:01.666Z,32.30
2019-02-24T11:15:32.415Z,33.60
2019-02-24T11:18:01.598Z,34.40
2019-02-24T11:20:30.486Z,34.40
2019-02-24T11:22:59.377Z,33.70
2019-02-24T11:25:28.580Z,32.90
2019-02-24T11:27:57.358Z,33.30
2019-02-24T11:30:26.490Z,33.40
2019-02-24T11:32:55.359Z,32.30
2019-02-24T11:35:24.223Z,33.50
2019-02-24T11:37:53.094Z,32.40
2019-02-24T11:40:22.022Z,33.30
2019-02-24T11:42:50.855Z,32.50
2019-02-24T11:45:19.671Z,31.60
2019-02-24T11:47:48.547Z,32.00
2019-02-24T11:50:17.323Z,32.40
2019-02-24T11:52:46.134Z,31.70
2019-02-24T11:55:15.066Z,32.10
2019-02-24T11:57:44.011Z,33.70
2019-02-24T12:00:13.123Z,32.80
2019-02-24T12:02:42.125Z,32.10
2019-02-24T12:05:11.491Z,32.00
2019-02-24T12:07:40.430Z,31.10
2019-02-24T12:10:09.464Z,31.80
2019-02-24T12:12:38.226Z,30.60
2019-02-24T12:15:08.638Z,31.90
2019-02-24T12:17:37.579Z,33.10
2019-02-24T12:20:08.842Z,32.50
2019-02-24T12:22:37.915Z,31.90
2019-02-24T12:25:07.339Z,29.90
2019-02-24T12:27:36.126Z,29.70
2019-02-24T12:30:05.987Z,29.70
2019-02-24T12:32:34.771Z,31.30
2019-02-24T12:35:03.725Z,30.80
2019-02-24T12:37:32.632Z,29.10
2019-02-24T12:40:01.475Z,30.00
2019-02-24T12:42:30.271Z,31.40
2019-02-24T12:44:59.066Z,30.70
2019-02-24T12:47:27.922Z,30.80
2019-02-24T12:50:03.220Z,31.30
2019-02-24T12:52:28.351Z,31.60
2019-02-24T12:54:57.150Z,32.20
2019-02-24T12:57:25.943Z,33.00
2019-02-24T12:59:54.758Z,30.50
2019-02-24T13:02:23.606Z,33.80
2019-02-24T13:04:52.434Z,32.30
2019-02-24T13:07:21.237Z,31.00
2019-02-24T13:09:50.008Z,30.90
2019-02-24T13:12:18.854Z,30.10
2019-02-24T13:14:47.666Z,28.50
2019-02-24T13:17:16.565Z,28.20
2019-02-24T13:19:45.570Z,28.90
2019-02-24T13:22:14.466Z,28.30
2019-02-24T13:24:43.635Z,29.40
2019-02-24T13:27:12.437Z,28.20
2019-02-24T13:29:41.250Z,28.40
2019-02-24T13:32:14.963Z,27.80
2019-02-24T13:34:40.829Z,28.30
2019-02-24T13:37:10.056Z,28.20
2019-02-24T13:39:38.855Z,28.00
2019-02-24T13:42:16.011Z,29.00
2019-02-24T13:44:44.919Z,25.90
2019-02-24T13:47:14.084Z,22.90
2019-02-24T13:49:43.140Z,23.20
2019-02-24T13:52:11.895Z,22.50
2019-02-24T13:54:40.888Z,21.50
2019-02-24T13:57:09.690Z,22.60
2019-02-24T13:59:38.755Z,21.60
2019-02-24T14:02:07.670Z,20.00
2019-02-24T14:04:36.550Z,21.70
2019-02-24T14:07:05.403Z,21.60
2019-02-24T14:09:34.170Z,21.30
2019-02-24T14:12:02.977Z,20.80
2019-02-24T14:14:31.726Z,20.20
2019-02-24T14:17:00.466Z,20.00
2019-02-24T14:19:29.262Z,21.10
2019-02-24T14:21:58.207Z,20.10
2019-02-24T14:24:27.051Z,19.80
2019-02-24T14:26:55.859Z,20.70
2019-02-24T14:29:25.111Z,19.30
2019-02-24T14:31:54.182Z,19.50
2019-02-24T14:34:22.969Z,18.70
2019-02-24T14:36:51.738Z,19.80
2019-02-24T14:39:22.194Z,20.50
2019-02-24T14:41:51.386Z,20.30
2019-02-24T14:44:20.443Z,20.20
2019-02-24T14:46:49.290Z,20.50
2019-02-24T14:49:18.398Z,21.40
2019-02-24T14:51:47.239Z,21.20
2019-02-24T14:54:16.055Z,21.60
2019-02-24T14:56:44.882Z,23.40
2019-02-24T14:59:14.155Z,21.30
2019-02-24T15:01:42.938Z,20.50
2019-02-24T15:04:11.999Z,21.10
2019-02-24T15:06:40.819Z,20.80
2019-02-24T15:09:09.674Z,20.80
2019-02-24T15:11:38.667Z,21.10
2019-02-24T15:14:07.476Z,23.20
2019-02-24T15:16:36.314Z,22.70
2019-02-24T15:19:05.202Z,21.80
2019-02-24T15:21:33.984Z,22.30
2019-02-24T15:24:03.262Z,24.10
2019-02-24T15:26:32.383Z,22.70
2019-02-24T15:29:01.243Z,23.50
2019-02-24T15:31:30.043Z,23.00
2019-02-24T15:33:58.846Z,23.60
2019-02-24T15:36:27.628Z,22.00
2019-02-24T15:38:56.490Z,21.90
2019-02-24T15:41:29.807Z,22.10
2019-02-24T15:43:55.847Z,22.30
2019-02-24T15:46:26.742Z,23.00
2019-02-24T15:48:55.307Z,22.80
2019-02-24T15:51:24.106Z,23.00
2019-02-24T15:53:52.883Z,23.50
2019-02-24T15:56:21.678Z,23.10
2019-02-24T15:58:50.445Z,23.80
2019-02-24T16:01:19.214Z,23.30
2019-02-24T16:03:48.347Z,23.40
2019-02-24T16:06:17.222Z,23.70
2019-02-24T16:08:45.996Z,25.20
2019-02-24T16:11:14.870Z,25.60
2019-02-24T16:13:43.639Z,26.30
2019-02-24T16:16:12.450Z,25.80
2019-02-24T16:18:41.298Z,26.70
2019-02-24T16:21:10.154Z,27.30
2019-02-24T16:23:38.958Z,28.50
2019-02-24T16:26:07.802Z,29.70
2019-02-24T16:28:36.861Z,30.00
2019-02-24T16:31:05.727Z,32.10
2019-02-24T16:33:34.614Z,32.40
2019-02-24T16:36:03.431Z,31.80
2019-02-24T16:38:32.266Z,32.70
2019-02-24T16:41:01.123Z,34.20
2019-02-24T16:43:29.992Z,33.60
2019-02-24T16:45:58.787Z,34.60
2019-02-24T16:48:27.595Z,35.00
2019-02-24T16:50:56.426Z,36.00
2019-02-24T16:53:25.351Z,38.00
2019-02-24T16:55:54.175Z,38.70
2019-02-24T16:58:23.030Z,38.40
2019-02-24T17:00:51.910Z,39.00
2019-02-24T17:03:20.807Z,40.10
2019-02-24T17:05:50.202Z,39.30
2019-02-24T17:08:19.049Z,40.20
2019-02-24T17:10:48.034Z,40.70
2019-02-24T17:13:16.857Z,40.10
2019-02-24T17:15:45.618Z,40.00
2019-02-24T17:18:14.462Z,41.50
2019-02-24T17:20:43.595Z,41.90
2019-02-24T17:23:12.472Z,42.50
2019-02-24T17:25:41.666Z,42.80
2019-02-24T17:28:10.614Z,43.50
2019-02-24T17:30:39.499Z,43.70
2019-02-24T17:33:08.418Z,43.90
2019-02-24T17:35:37.300Z,44.10
2019-02-24T17:38:06.218Z,44.50
2019-02-24T17:40:35.034Z,45.80
2019-02-24T17:43:03.893Z,47.30
2019-02-24T17:45:32.667Z,48.20
2019-02-24T17:48:01.683Z,48.90
2019-02-24T17:50:30.554Z,49.10
2019-02-24T17:52:59.760Z,49.10
2019-02-24T17:55:28.982Z,51.00
2019-02-24T17:57:57.854Z,51.40
2019-02-24T18:00:29.914Z,51.50
2019-02-24T18:02:58.747Z,51.90
2019-02-24T18:05:27.636Z,52.80
2019-02-24T18:07:56.498Z,53.10
2019-02-24T18:10:26.642Z,53.30
2019-02-24T18:12:55.528Z,52.60
2019-02-24T18:15:26.766Z,51.80
2019-02-24T18:17:58.568Z,52.80
2019-02-24T18:20:27.816Z,54.00
2019-02-24T18:22:56.616Z,54.10
2019-02-24T18:25:25.424Z,55.00
2019-02-24T18:27:54.318Z,54.90
2019-02-24T18:30:24.164Z,55.60
2019-02-24T18:32:53.152Z,54.70
2019-02-24T18:35:22.176Z,54.50
2019-02-24T18:37:51.034Z,54.30
2019-02-24T18:40:20.122Z,54.40
2019-02-24T18:42:49.113Z,55.30
2019-02-24T18:45:24.120Z,56.00
2019-02-24T18:47:53.378Z,55.60
2019-02-24T18:50:22.255Z,56.60
2019-02-24T18:52:51.142Z,55.80
2019-02-24T18:55:19.977Z,56.20
2019-02-24T18:57:48.990Z,55.60
2019-02-24T19:00:19.380Z,55.60
2019-02-24T19:02:50.158Z,55.50
2019-02-24T19:05:19.097Z,56.10
2019-02-24T19:07:47.963Z,57.30
2019-02-24T19:10:17.013Z,58.40
2019-02-24T19:12:45.956Z,57.70
2019-02-24T19:15:16.450Z,57.60
2019-02-24T19:17:45.410Z,57.10
2019-02-24T19:20:15.999Z,58.40
2019-02-24T19:22:45.027Z,58.70
2019-02-24T19:25:14.178Z,58.80
2019-02-24T19:27:43.131Z,58.50
2019-02-24T19:30:13.325Z,58.60
2019-02-24T19:32:42.215Z,58.60
2019-02-24T19:35:11.714Z,57.90
2019-02-24T19:37:40.601Z,58.50
2019-02-24T19:40:11.666Z,59.10
2019-02-24T19:42:40.635Z,59.10
2019-02-24T19:45:10.157Z,58.90
2019-02-24T19:47:39.131Z,58.90
2019-02-24T19:50:11.851Z,59.10
2019-02-24T19:52:40.627Z,59.50
2019-02-24T19:55:11.650Z,59.70
2019-02-24T19:57:40.442Z,61.00
2019-02-24T20:00:16.022Z,60.90
2019-02-24T20:02:44.902Z,61.70
2019-02-24T20:05:13.886Z,62.00
2019-02-24T20:07:42.919Z,62.20
2019-02-24T20:10:12.240Z,61.90
2019-02-24T20:12:41.107Z,61.50
2019-02-24T20:15:11.461Z,62.40
2019-02-24T20:17:40.317Z,64.00
2019-02-24T20:20:10.194Z,63.80
2019-02-24T20:22:38.963Z,63.10
2019-02-24T20:25:09.187Z,61.60
2019-02-24T20:27:37.967Z,62.50
2019-02-24T20:30:10.950Z,62.50
2019-02-24T20:32:39.767Z,61.70
2019-02-24T20:35:09.223Z,60.80
2019-02-24T20:37:38.168Z,60.40
2019-02-24T20:40:08.358Z,60.20
2019-02-24T20:42:37.276Z,61.40
2019-02-24T20:45:07.195Z,61.20
2019-02-24T20:47:38.418Z,61.70
2019-02-24T20:50:08.530Z,62.10
2019-02-24T20:52:37.406Z,62.80
2019-02-24T20:55:07.222Z,63.20
2019-02-24T20:57:36.050Z,62.80
2019-02-24T21:00:08.600Z,63.50
2019-02-24T21:02:38.926Z,62.40
2019-02-24T21:05:07.979Z,62.80
2019-02-24T21:07:36.778Z,61.60
2019-02-24T21:10:05.970Z,62.20
2019-02-24T21:12:34.776Z,64.10
2019-02-24T21:15:03.946Z,63.30
2019-02-24T21:17:32.809Z,64.10
2019-02-24T21:20:01.611Z,65.10
2019-02-24T21:22:30.434Z,65.70
2019-02-24T21:24:59.236Z,66.30
2019-02-24T21:27:28.054Z,64.90
2019-02-24T21:29:56.842Z,64.50
2019-02-24T21:32:25.656Z,64.40
2019-02-24T21:34:54.467Z,64.70
2019-02-24T21:37:23.251Z,66.80
2019-02-24T21:39:52.078Z,67.70
2019-02-24T21:42:21.114Z,67.90
2019-02-24T21:44:49.935Z,68.60
2019-02-24T21:47:18.882Z,68.50
2019-02-24T21:49:48.963Z,69.60
2019-02-24T21:52:17.834Z,69.90
2019-02-24T21:54:46.731Z,70.50
2019-02-24T21:57:16.321Z,70.00
2019-02-24T21:59:45.256Z,70.20
2019-02-24T22:02:14.448Z,70.80
2019-02-24T22:04:43.384Z,71.50
2019-02-24T22:07:12.318Z,73.40
2019-02-24T22:09:41.162Z,73.00
2019-02-24T22:12:10.270Z,73.40
2019-02-24T22:14:39.315Z,74.90
2019-02-24T22:17:08.120Z,74.80
2019-02-24T22:19:36.935Z,76.40
2019-02-24T22:22:05.794Z,77.00
2019-02-24T22:24:34.731Z,76.80
2019-02-24T22:27:03.610Z,76.20
2019-02-24T22:29:40.570Z,76.40
2019-02-24T22:32:09.594Z,76.50
2019-02-24T22:34:38.371Z,76.20
2019-02-24T22:37:07.268Z,75.70
2019-02-24T22:42:28.359Z,77.00
2019-02-24T22:44:57.246Z,77.20
2019-02-24T22:47:26.131Z,77.10
2019-02-24T22:49:55.212Z,77.10
2019-02-24T22:52:24.224Z,77.10
2019-02-24T22:54:53.107Z,77.20
2019-02-24T22:57:22.135Z,77.50
2019-02-24T22:59:50.943Z,77.60
2019-02-24T23:02:22.082Z,78.20
2019-02-24T23:04:50.960Z,78.20
2019-02-24T23:07:19.920Z,78.00
2019-02-24T23:09:48.830Z,77.80
2019-02-24T23:12:17.976Z,77.00
2019-02-24T23:14:47.989Z,77.40
2019-02-24T23:17:17.544Z,77.20
2019-02-24T23:27:53.619Z,77.00
2019-02-24T23:33:55.249Z,75.10
2019-02-24T23:36:24.229Z,76.50
2019-02-24T23:38:53.451Z,76.20
2019-02-24T23:41:22.308Z,76.40
2019-02-24T23:43:51.958Z,77.60
2019-02-24T23:46:21.526Z,77.30
2019-02-24T23:56:08.862Z,77.10
